Time;durP1;ratioP1;P1;durP2;ratioP2;P2;SDS_P1;SDS_P2;PMS_P1;PMS_P2;Temp;Humidity;BMP_temperature;BMP_pressure;BME280_temperature;BME280_humidity;BME280_pressure;Samples;Min_cycle;Max_cycle;Signal;HPM_P1;HPM_P2
2021/10/21 00:01:51;;;;;;;1024.25;916.42;;;;;;;;;;5051828;28;20029;-83
2021/10/21 00:04:17;;;;;;;1054.43;944.88;;;;;;;;;;5054235;28;20021;-86
2021/10/21 00:06:43;;;;;;;1056.55;947.03;;;;;;;;;;5063615;28;20029;-85
2021/10/21 00:09:09;;;;;;;1038.00;929.55;;;;;;;;;;5051036;28;20024;-85
2021/10/21 00:11:35;;;;;;;1055.90;946.83;;;;;;;;;;5049373;28;20330;-81
2021/10/21 00:14:02;;;;;;;1011.63;904.90;;;;;;;;;;5056516;28;20037;-82
2021/10/21 00:16:28;;;;;;;1050.35;940.92;;;;;;;;;;5060218;28;20024;-85
2021/10/21 00:18:54;;;;;;;1053.32;943.67;;;;;;;;;;5062656;28;20086;-82
2021/10/21 00:21:20;;;;;;;1054.38;944.97;;;;;;;;;;5079368;28;20512;-82
2021/10/21 00:23:46;;;;;;;1062.22;952.53;;;;;;;;;;5082696;28;20020;-82
2021/10/21 00:26:12;;;;;;;1053.10;943.83;;;;;;;;;;5080266;28;20939;-83
2021/10/21 00:28:38;;;;;;;1054.35;944.83;;;;;;;;;;5076012;28;20078;-81
2021/10/21 00:31:05;;;;;;;1027.13;919.88;;;;;;;;;;5063242;28;20028;-80
2021/10/21 00:33:31;;;;;;;1043.68;935.15;;;;;;;;;;5081933;28;20107;-79
2021/10/21 00:35:57;;;;;;;1040.55;932.03;;;;;;;;;;5062782;28;20118;-86
2021/10/21 00:38:23;;;;;;;1045.30;936.70;;;;;;;;;;5061883;28;20540;-80
2021/10/21 00:40:49;;;;;;;1044.03;935.17;;;;;;;;;;5065015;28;20570;-81
2021/10/21 00:43:15;;;;;;;1055.88;946.47;;;;;;;;;;5065262;28;20318;-81
2021/10/21 00:45:41;;;;;;;1014.17;907.60;;;;;;;;;;5063581;28;20027;-79
2021/10/21 00:48:08;;;;;;;1000.53;894.78;;;;;;;;;;5082846;28;20053;-79
2021/10/21 00:50:36;;;;;;;1039.93;931.95;;;;;;;;;;5065613;28;21452;-76
2021/10/21 00:53:02;;;;;;;1001.40;895.08;;;;;;;;;;5068145;28;20040;-77
2021/10/21 00:55:28;;;;;;;966.83;862.55;;;;;;;;;;5062358;28;20101;-79
2021/10/21 00:57:55;;;;;;;1029.88;921.17;;;;;;;;;;5066346;28;20472;-80
2021/10/21 01:00:21;;;;;;;1014.83;907.67;;;;;;;;;;5066769;28;20120;-78
2021/10/21 01:02:47;;;;;;;1019.95;912.67;;;;;;;;;;5082922;28;20103;-82
2021/10/21 01:05:13;;;;;;;1033.20;925.25;;;;;;;;;;5066375;28;20020;-79
2021/10/21 01:07:39;;;;;;;1034.55;926.13;;;;;;;;;;5065232;28;20444;-81
2021/10/21 01:10:07;;;;;;;1044.10;935.45;;;;;;;;;;5060285;28;20031;-77
2021/10/21 01:12:33;;;;;;;1032.40;924.13;;;;;;;;;;5064905;28;20288;-79
2021/10/21 01:15:19;;;;;;;1012.92;906.15;;;;;;;;;;5065592;28;21386;-79
2021/10/21 01:17:45;;;;;;;1037.10;928.63;;;;;;;;;;5062301;28;20028;-82
2021/10/21 01:20:14;;;;;;;999.05;893.25;;;;;;;;;;5081791;28;20532;-79
2021/10/21 01:22:42;;;;;;;1025.75;918.03;;;;;;;;;;5082966;28;20032;-79
2021/10/21 01:25:08;;;;;;;1024.32;916.90;;;;;;;;;;5059379;28;20036;-78
2021/10/21 01:27:34;;;;;;;1024.90;917.40;;;;;;;;;;5061546;28;20115;-78
2021/10/21 01:30:01;;;;;;;1040.45;932.03;;;;;;;;;;5046573;28;20059;-79
2021/10/21 01:32:28;;;;;;;1021.63;914.17;;;;;;;;;;5044617;28;20064;-79
2021/10/21 01:34:54;;;;;;;974.50;868.78;;;;;;;;;;5043566;28;20066;-78
2021/10/21 01:37:20;;;;;;;1010.80;903.63;;;;;;;;;;5043289;28;20110;-79
2021/10/21 01:39:46;;;;;;;980.50;874.78;;;;;;;;;;5059668;28;20472;-79
2021/10/21 01:42:12;;;;;;;932.53;822.40;;;;;;;;;;5062383;28;20118;-78
2021/10/21 01:44:38;;;;;;;948.85;843.22;;;;;;;;;;5054275;28;20048;-79
2021/10/21 01:47:04;;;;;;;938.33;811.33;;;;;;;;;;5044198;28;20031;-80
2021/10/21 01:49:30;;;;;;;935.85;795.38;;;;;;;;;;5073247;28;20381;-80
2021/10/21 01:51:56;;;;;;;938.13;798.33;;;;;;;;;;5059618;28;20119;-82
2021/10/21 01:54:22;;;;;;;935.53;781.50;;;;;;;;;;5043383;28;20654;-82
2021/10/21 01:56:48;;;;;;;926.30;753.83;;;;;;;;;;5068197;28;20029;-83
2021/10/21 01:59:14;;;;;;;922.72;737.13;;;;;;;;;;5044992;28;20056;-84
2021/10/21 02:01:40;;;;;;;913.83;718.83;;;;;;;;;;5045190;28;20098;-82
2021/10/21 02:04:06;;;;;;;915.67;722.13;;;;;;;;;;5044478;28;20104;-83
2021/10/21 02:06:32;;;;;;;914.70;725.03;;;;;;;;;;5043322;28;20037;-84
2021/10/21 02:08:59;;;;;;;934.38;769.92;;;;;;;;;;5080009;28;20040;-81
2021/10/21 02:11:25;;;;;;;931.42;769.55;;;;;;;;;;5055527;28;20027;-81
2021/10/21 02:13:51;;;;;;;912.88;716.80;;;;;;;;;;5064026;28;20553;-81
2021/10/21 02:16:18;;;;;;;910.80;692.08;;;;;;;;;;5064824;28;20118;-83
2021/10/21 02:18:44;;;;;;;902.42;683.70;;;;;;;;;;5063587;28;20028;-82
2021/10/21 02:21:09;;;;;;;899.83;680.38;;;;;;;;;;5063048;28;20119;-80
2021/10/21 02:23:35;;;;;;;916.08;724.42;;;;;;;;;;5083518;28;20039;-78
2021/10/21 02:26:02;;;;;;;898.85;673.60;;;;;;;;;;5063041;28;20028;-80
2021/10/21 02:28:28;;;;;;;907.70;703.92;;;;;;;;;;5056671;28;20115;-81
2021/10/21 02:30:54;;;;;;;917.90;726.05;;;;;;;;;;5065899;28;20036;-80
2021/10/21 02:33:20;;;;;;;902.17;683.42;;;;;;;;;;5064529;28;20119;-78
2021/10/21 02:35:46;;;;;;;907.13;695.22;;;;;;;;;;5080958;28;20075;-79
2021/10/21 02:38:12;;;;;;;911.13;710.10;;;;;;;;;;5078269;28;20036;-79
2021/10/21 02:40:39;;;;;;;908.63;696.55;;;;;;;;;;5080711;28;20032;-80
2021/10/21 02:43:06;;;;;;;912.00;715.75;;;;;;;;;;5081989;28;20446;-78
2021/10/21 02:45:32;;;;;;;903.65;687.97;;;;;;;;;;5065860;28;20523;-78
2021/10/21 02:47:58;;;;;;;913.15;711.00;;;;;;;;;;5063224;28;20081;-78
2021/10/21 02:50:24;;;;;;;905.15;690.70;;;;;;;;;;5081945;28;20024;-79
2021/10/21 02:52:50;;;;;;;906.70;688.80;;;;;;;;;;5064717;28;20031;-78
2021/10/21 02:55:17;;;;;;;909.83;702.15;;;;;;;;;;5061409;28;20036;-78
2021/10/21 02:57:43;;;;;;;912.50;711.55;;;;;;;;;;5081994;28;20448;-79
2021/10/21 03:00:10;;;;;;;895.95;662.90;;;;;;;;;;5064656;28;20032;-78
2021/10/21 03:02:36;;;;;;;910.25;700.35;;;;;;;;;;5065805;28;20077;-78
2021/10/21 03:05:03;;;;;;;907.55;703.50;;;;;;;;;;5083936;28;20055;-77
2021/10/21 03:07:29;;;;;;;919.42;736.40;;;;;;;;;;5064209;28;20043;-78
2021/10/21 03:09:55;;;;;;;914.47;720.47;;;;;;;;;;5046231;28;20029;-77
2021/10/21 03:12:21;;;;;;;923.13;749.38;;;;;;;;;;5034277;28;20516;-78
2021/10/21 03:14:47;;;;;;;934.17;778.83;;;;;;;;;;5035282;28;20040;-78
2021/10/21 03:17:14;;;;;;;913.47;724.78;;;;;;;;;;5032932;28;20032;-78
2021/10/21 03:19:40;;;;;;;925.83;754.75;;;;;;;;;;5034190;28;20028;-82
2021/10/21 03:22:06;;;;;;;928.65;756.75;;;;;;;;;;5033919;28;20050;-80
2021/10/21 03:24:32;;;;;;;929.03;763.40;;;;;;;;;;5054406;28;20332;-79
2021/10/21 03:26:58;;;;;;;931.67;770.55;;;;;;;;;;5029533;28;20457;-79
2021/10/21 03:29:25;;;;;;;914.38;716.90;;;;;;;;;;5029718;28;20099;-78
2021/10/21 03:31:51;;;;;;;927.58;755.47;;;;;;;;;;5034084;28;20504;-81
2021/10/21 03:34:17;;;;;;;928.05;752.85;;;;;;;;;;5033207;28;20055;-81
2021/10/21 03:36:43;;;;;;;921.17;740.15;;;;;;;;;;5025900;28;20053;-79
2021/10/21 03:39:09;;;;;;;926.83;756.40;;;;;;;;;;5027918;28;20293;-80
2021/10/21 03:41:35;;;;;;;933.38;767.38;;;;;;;;;;5055828;28;20442;-79
2021/10/21 03:44:01;;;;;;;928.83;756.45;;;;;;;;;;5062357;28;20119;-79
2021/10/21 03:46:27;;;;;;;942.88;796.88;;;;;;;;;;5079994;28;20420;-82
2021/10/21 03:48:56;;;;;;;929.58;769.97;;;;;;;;;;5063024;28;20123;-79
2021/10/21 03:51:22;;;;;;;931.38;773.47;;;;;;;;;;5059337;28;20041;-81
2021/10/21 03:53:48;;;;;;;940.25;795.75;;;;;;;;;;5060449;28;20487;-79
2021/10/21 03:56:14;;;;;;;928.95;771.13;;;;;;;;;;5082173;28;20464;-81
2021/10/21 03:58:40;;;;;;;945.30;810.63;;;;;;;;;;5055303;28;20028;-82
2021/10/21 04:01:06;;;;;;;947.92;811.92;;;;;;;;;;5064628;28;20111;-80
2021/10/21 04:03:32;;;;;;;941.00;794.35;;;;;;;;;;5083373;28;20028;-79
2021/10/21 04:05:58;;;;;;;939.47;791.35;;;;;;;;;;5060959;28;20039;-80
2021/10/21 04:08:24;;;;;;;945.35;812.08;;;;;;;;;;5063486;28;20024;-81
2021/10/21 04:10:50;;;;;;;932.08;777.17;;;;;;;;;;5064674;28;20077;-80
2021/10/21 04:13:16;;;;;;;929.20;767.15;;;;;;;;;;5085394;28;20490;-84
2021/10/21 04:15:42;;;;;;;936.95;787.42;;;;;;;;;;5056973;28;20447;-83
2021/10/21 04:18:08;;;;;;;935.83;786.10;;;;;;;;;;5060515;28;20473;-82
2021/10/21 04:20:34;;;;;;;935.58;782.25;;;;;;;;;;5075416;28;20029;-82
2021/10/21 04:23:00;;;;;;;929.53;758.40;;;;;;;;;;5056416;28;20078;-81
2021/10/21 04:25:26;;;;;;;937.00;781.83;;;;;;;;;;5057648;28;20040;-82
2021/10/21 04:27:52;;;;;;;933.30;779.28;;;;;;;;;;5052120;28;20116;-82
2021/10/21 04:30:18;;;;;;;941.00;789.92;;;;;;;;;;5065818;28;20033;-81
2021/10/21 04:32:44;;;;;;;936.17;786.72;;;;;;;;;;5073319;28;20488;-82
2021/10/21 04:35:10;;;;;;;934.78;786.90;;;;;;;;;;5057983;28;20078;-81
2021/10/21 04:37:36;;;;;;;928.13;766.80;;;;;;;;;;5071823;28;21382;-81
2021/10/21 04:40:02;;;;;;;939.28;795.40;;;;;;;;;;5041436;28;20041;-82
2021/10/21 04:42:29;;;;;;;939.55;791.13;;;;;;;;;;5077316;28;20037;-81
2021/10/21 04:44:55;;;;;;;944.08;808.13;;;;;;;;;;5070075;28;20025;-81
2021/10/21 04:47:21;;;;;;;948.50;815.55;;;;;;;;;;5053697;28;20025;-79
2021/10/21 04:49:47;;;;;;;955.95;833.83;;;;;;;;;;5076050;28;20652;-80
2021/10/21 04:52:12;;;;;;;947.55;816.58;;;;;;;;;;5078756;28;20062;-80
2021/10/21 04:54:39;;;;;;;946.70;812.50;;;;;;;;;;5055749;28;20540;-81
2021/10/21 04:57:05;;;;;;;945.90;815.55;;;;;;;;;;5072664;28;20037;-81
2021/10/21 04:59:31;;;;;;;953.10;835.70;;;;;;;;;;5069032;28;20115;-82
2021/10/21 05:01:57;;;;;;;950.53;827.03;;;;;;;;;;5080410;28;20125;-82
2021/10/21 05:04:23;;;;;;;960.80;850.15;;;;;;;;;;5075978;28;20398;-84
2021/10/21 05:06:49;;;;;;;964.08;854.40;;;;;;;;;;5066766;28;20412;-84
2021/10/21 05:09:15;;;;;;;958.30;844.85;;;;;;;;;;5069735;28;20175;-85
2021/10/21 05:11:41;;;;;;;954.72;841.17;;;;;;;;;;5053030;28;20238;-83
2021/10/21 05:14:07;;;;;;;951.70;831.72;;;;;;;;;;5059554;28;20135;-89
2021/10/21 05:16:33;;;;;;;967.47;859.13;;;;;;;;;;5068556;28;20036;-84
2021/10/21 05:18:59;;;;;;;969.00;861.83;;;;;;;;;;5068868;28;20028;-83
2021/10/21 05:21:25;;;;;;;960.65;850.65;;;;;;;;;;5060743;28;20028;-85
2021/10/21 05:23:51;;;;;;;950.35;827.92;;;;;;;;;;5067716;28;21761;-83
2021/10/21 05:26:17;;;;;;;955.22;839.92;;;;;;;;;;5086728;28;20448;-80
2021/10/21 05:28:43;;;;;;;950.47;828.08;;;;;;;;;;5064497;28;20031;-85
2021/10/21 05:31:09;;;;;;;952.42;830.13;;;;;;;;;;5062866;28;20134;-83
2021/10/21 05:33:35;;;;;;;944.25;812.38;;;;;;;;;;5063324;28;20313;-82
2021/10/21 05:36:04;;;;;;;944.00;802.08;;;;;;;;;;5084963;28;20517;-81
2021/10/21 05:38:31;;;;;;;931.40;765.63;;;;;;;;;;5068182;28;20147;-82
2021/10/21 05:40:57;;;;;;;945.85;795.83;;;;;;;;;;5066179;28;20380;-84
2021/10/21 05:43:23;;;;;;;924.97;743.45;;;;;;;;;;5082989;28;20035;-82
2021/10/21 05:45:49;;;;;;;939.28;772.60;;;;;;;;;;5083039;28;20024;-81
2021/10/21 05:48:16;;;;;;;944.42;793.65;;;;;;;;;;5064542;28;20644;-85
2021/10/21 05:50:43;;;;;;;938.80;775.05;;;;;;;;;;5078752;28;20429;-81
2021/10/21 05:53:09;;;;;;;949.45;792.60;;;;;;;;;;5084026;28;20395;-78
2021/10/21 05:55:35;;;;;;;940.92;782.97;;;;;;;;;;5064498;28;20077;-82
2021/10/21 05:58:01;;;;;;;939.13;773.75;;;;;;;;;;5068485;28;20469;-84
2021/10/21 06:00:27;;;;;;;936.38;763.08;;;;;;;;;;5087655;28;20392;-82
2021/10/21 06:02:53;;;;;;;941.08;778.58;;;;;;;;;;5067966;28;20461;-84
2021/10/21 06:05:22;;;;;;;924.80;734.70;;;;;;;;;;5084746;28;20039;-81
2021/10/21 06:07:48;;;;;;;935.70;764.87;;;;;;;;;;5061713;28;20025;-82
2021/10/21 06:10:14;;;;;;;938.33;769.63;;;;;;;;;;5067036;28;20027;-82
2021/10/21 06:12:43;;;;;;;938.42;770.22;;;;;;;;;;5059062;28;20024;-81
2021/10/21 06:15:12;;;;;;;945.47;782.47;;;;;;;;;;5061786;28;20031;-82
2021/10/21 06:17:39;;;;;;;937.05;761.80;;;;;;;;;;5083276;28;20043;-87
2021/10/21 06:20:10;;;;;;;938.20;769.95;;;;;;;;;;5086186;28;20418;-84
2021/10/21 06:22:36;;;;;;;938.92;767.63;;;;;;;;;;5057687;28;20113;-81
2021/10/21 06:25:03;;;;;;;944.58;786.00;;;;;;;;;;5064131;28;20077;-83
2021/10/21 06:27:29;;;;;;;940.45;775.55;;;;;;;;;;5086786;28;20027;-81
2021/10/21 06:29:55;;;;;;;941.00;782.70;;;;;;;;;;5066923;28;20047;-83
2021/10/21 06:32:21;;;;;;;940.38;776.25;;;;;;;;;;5066959;28;20032;-81
2021/10/21 06:34:47;;;;;;;943.33;784.45;;;;;;;;;;5070149;28;20039;-80
2021/10/21 06:37:13;;;;;;;941.95;779.85;;;;;;;;;;5058190;28;20039;-80
2021/10/21 06:39:39;;;;;;;945.75;790.97;;;;;;;;;;5066826;28;20028;-82
2021/10/21 06:42:05;;;;;;;950.30;803.83;;;;;;;;;;5068188;28;20032;-83
2021/10/21 06:44:31;;;;;;;943.72;791.78;;;;;;;;;;5087433;28;20031;-81
2021/10/21 06:46:57;;;;;;;950.67;809.95;;;;;;;;;;5069806;28;20248;-85
2021/10/21 06:49:23;;;;;;;951.50;810.85;;;;;;;;;;5066501;28;20115;-80
2021/10/21 06:51:49;;;;;;;949.58;806.78;;;;;;;;;;5069296;28;20027;-83
2021/10/21 06:54:15;;;;;;;943.65;797.92;;;;;;;;;;5067687;28;20119;-80
2021/10/21 06:56:41;;;;;;;949.85;807.03;;;;;;;;;;5069628;28;20127;-83
2021/10/21 06:59:07;;;;;;;943.28;794.38;;;;;;;;;;5070259;28;20028;-81
2021/10/21 07:01:33;;;;;;;948.78;802.17;;;;;;;;;;5070139;28;20517;-85
2021/10/21 07:04:02;;;;;;;938.25;777.78;;;;;;;;;;5060405;28;20033;-80
2021/10/21 07:06:29;;;;;;;951.38;810.38;;;;;;;;;;5066172;28;20028;-82
2021/10/21 07:08:55;;;;;;;951.88;812.75;;;;;;;;;;5069875;28;20020;-83
2021/10/21 07:11:21;;;;;;;946.25;796.72;;;;;;;;;;5058503;28;20039;-83
2021/10/21 07:13:47;;;;;;;953.03;820.58;;;;;;;;;;5053038;28;20048;-81
2021/10/21 07:16:13;;;;;;;951.42;811.35;;;;;;;;;;5064539;28;20060;-80
2021/10/21 07:18:39;;;;;;;948.28;813.72;;;;;;;;;;5067965;28;20021;-83
2021/10/21 07:21:06;;;;;;;946.53;806.47;;;;;;;;;;5050429;28;20590;-81
2021/10/21 07:23:32;;;;;;;952.30;815.90;;;;;;;;;;5069474;28;20028;-80
2021/10/21 07:25:58;;;;;;;948.25;807.60;;;;;;;;;;5064696;28;20088;-81
2021/10/21 07:28:26;;;;;;;952.88;820.38;;;;;;;;;;5072252;28;20111;-79
2021/10/21 07:31:01;;;;;;;951.10;816.22;;;;;;;;;;5068824;28;20039;-82
2021/10/21 07:33:28;;;;;;;948.85;803.92;;;;;;;;;;5069871;28;20106;-83
2021/10/21 07:35:55;;;;;;;944.47;800.53;;;;;;;;;;5074399;28;20096;-81
2021/10/21 07:38:21;;;;;;;953.45;822.28;;;;;;;;;;5068279;28;20480;-81
2021/10/21 07:40:47;;;;;;;955.05;822.80;;;;;;;;;;5068626;28;20166;-83
2021/10/21 07:43:13;;;;;;;936.97;778.00;;;;;;;;;;5063574;28;20024;-80
2021/10/21 07:45:39;;;;;;;942.63;797.17;;;;;;;;;;5054009;28;20025;-81
2021/10/21 07:48:06;;;;;;;954.55;822.33;;;;;;;;;;5066974;28;20392;-83
2021/10/21 07:50:32;;;;;;;951.40;817.00;;;;;;;;;;5069661;28;20033;-81
2021/10/21 07:52:59;;;;;;;946.17;809.22;;;;;;;;;;5079317;28;20054;-82
2021/10/21 07:55:25;;;;;;;949.22;816.22;;;;;;;;;;5067664;28;20035;-80
2021/10/21 07:57:51;;;;;;;945.53;813.72;;;;;;;;;;5081709;28;20337;-81
2021/10/21 08:00:17;;;;;;;951.00;808.05;;;;;;;;;;5070545;28;20071;-80
2021/10/21 08:02:44;;;;;;;946.22;808.97;;;;;;;;;;5069724;28;20020;-81
2021/10/21 08:05:10;;;;;;;939.15;786.40;;;;;;;;;;5061316;28;20496;-82
2021/10/21 08:07:37;;;;;;;951.70;820.03;;;;;;;;;;5052939;28;20360;-79
2021/10/21 08:10:04;;;;;;;946.78;809.50;;;;;;;;;;5060770;28;20070;-78
2021/10/21 08:12:30;;;;;;;946.00;811.80;;;;;;;;;;5064079;28;20082;-80
2021/10/21 08:14:55;;;;;;;954.50;825.78;;;;;;;;;;5067533;28;20044;-79
2021/10/21 08:17:22;;;;;;;934.97;784.03;;;;;;;;;;5068822;28;20548;-78
2021/10/21 08:19:49;;;;;;;943.92;804.55;;;;;;;;;;5062271;28;20028;-80
2021/10/21 08:22:15;;;;;;;941.05;800.25;;;;;;;;;;5064090;28;20020;-82
2021/10/21 08:24:41;;;;;;;937.67;789.20;;;;;;;;;;5066309;28;20533;-79
2021/10/21 08:27:07;;;;;;;939.72;796.67;;;;;;;;;;5055439;28;20037;-81
2021/10/21 08:29:33;;;;;;;949.78;815.08;;;;;;;;;;5077623;28;20028;-80
2021/10/21 08:32:04;;;;;;;943.60;803.55;;;;;;;;;;5083761;28;20379;-79
2021/10/21 08:34:31;;;;;;;947.97;808.38;;;;;;;;;;5086899;28;20472;-81
2021/10/21 08:36:57;;;;;;;942.85;787.30;;;;;;;;;;5070678;28;20024;-81
2021/10/21 08:39:23;;;;;;;949.15;806.58;;;;;;;;;;5065016;28;20024;-82
2021/10/21 08:41:49;;;;;;;946.58;811.10;;;;;;;;;;5060433;28;20075;-80
2021/10/21 08:44:16;;;;;;;944.47;802.67;;;;;;;;;;5065388;28;20123;-78
2021/10/21 08:46:44;;;;;;;945.65;803.88;;;;;;;;;;5065059;28;20024;-80
2021/10/21 08:49:10;;;;;;;945.30;798.67;;;;;;;;;;5063607;28;20048;-80
2021/10/21 08:51:37;;;;;;;941.17;801.20;;;;;;;;;;5080963;28;20031;-79
2021/10/21 08:54:04;;;;;;;951.47;829.35;;;;;;;;;;5068951;28;20059;-79
2021/10/21 08:56:30;;;;;;;950.95;824.90;;;;;;;;;;5067793;28;20426;-79
2021/10/21 08:58:57;;;;;;;954.70;841.22;;;;;;;;;;5067077;28;20047;-78
2021/10/21 09:04:36;;;;;;;955.13;844.25;;;;;;;;;;5086737;28;20491;-80
2021/10/21 09:09:34;;;;;;;963.25;856.28;;;;;;;;;;5076710;28;20384;-79
2021/10/21 09:12:08;;;;;;;965.92;859.42;;;;;;;;;;5049825;28;20479;-79
2021/10/21 09:14:35;;;;;;;960.40;853.28;;;;;;;;;;5061405;28;20075;-78
2021/10/21 09:17:02;;;;;;;949.33;839.45;;;;;;;;;;5071404;28;20439;-79
2021/10/21 09:19:28;;;;;;;970.45;863.83;;;;;;;;;;5067973;28;20063;-80
2021/10/21 09:21:55;;;;;;;964.42;858.10;;;;;;;;;;5057544;28;20392;-77
2021/10/21 09:24:24;;;;;;;974.70;867.90;;;;;;;;;;5071771;28;20013;-79
2021/10/21 09:27:03;;;;;;;968.15;861.72;;;;;;;;;;5071634;28;20074;-77
2021/10/21 09:29:30;;;;;;;935.50;803.75;;;;;;;;;;5071123;28;20095;-77
2021/10/21 09:32:04;;;;;;;970.10;863.35;;;;;;;;;;5071355;28;20036;-77
2021/10/21 09:34:29;;;;;;;986.63;879.28;;;;;;;;;;5071382;28;20032;-78
2021/10/21 09:37:03;;;;;;;941.45;831.65;;;;;;;;;;5070812;28;20024;-76
2021/10/21 09:39:40;;;;;;;979.72;872.78;;;;;;;;;;5089451;28;20089;-78
2021/10/21 09:42:09;;;;;;;980.10;873.13;;;;;;;;;;5086015;28;20435;-75
2021/10/21 09:44:35;;;;;;;962.13;856.35;;;;;;;;;;5071482;28;20031;-77
2021/10/21 09:47:14;;;;;;;987.08;879.83;;;;;;;;;;5070854;28;20036;-77
2021/10/21 09:49:41;;;;;;;969.35;862.80;;;;;;;;;;5068496;28;20024;-80
2021/10/21 09:52:14;;;;;;;972.72;866.08;;;;;;;;;;5089157;28;20028;-76
2021/10/21 09:54:40;;;;;;;979.83;872.83;;;;;;;;;;5083545;28;20082;-76
2021/10/21 09:57:07;;;;;;;980.70;873.60;;;;;;;;;;5082611;28;20093;-76
2021/10/21 09:59:34;;;;;;;972.63;865.75;;;;;;;;;;5070926;28;20020;-78
2021/10/21 10:02:17;;;;;;;960.15;852.92;;;;;;;;;;5084228;28;20090;-79
2021/10/21 10:04:50;;;;;;;954.47;845.35;;;;;;;;;;5060333;28;20119;-78
2021/10/21 10:07:16;;;;;;;965.05;858.50;;;;;;;;;;5067642;28;20538;-79
2021/10/21 10:09:42;;;;;;;954.38;842.25;;;;;;;;;;5050367;28;20119;-79
2021/10/21 10:12:08;;;;;;;966.45;856.53;;;;;;;;;;5055799;28;20028;-79
2021/10/21 10:14:38;;;;;;;958.58;846.33;;;;;;;;;;5071525;28;20462;-81
2021/10/21 10:17:04;;;;;;;951.00;833.42;;;;;;;;;;5056779;28;20036;-80
2021/10/21 10:19:32;;;;;;;952.70;833.42;;;;;;;;;;5054749;28;20077;-80
2021/10/21 10:22:01;;;;;;;942.83;810.55;;;;;;;;;;5066620;28;20039;-78
2021/10/21 10:24:35;;;;;;;932.35;788.67;;;;;;;;;;5062191;28;20036;-80
2021/10/21 10:27:03;;;;;;;944.70;812.60;;;;;;;;;;5069706;28;20034;-81
2021/10/21 10:29:32;;;;;;;934.55;786.05;;;;;;;;;;5069037;28;20052;-81
2021/10/21 10:32:01;;;;;;;943.25;810.38;;;;;;;;;;5069034;28;20039;-80
2021/10/21 10:34:36;;;;;;;922.50;750.53;;;;;;;;;;5067738;28;20027;-81
2021/10/21 10:37:28;;;;;;;939.40;793.40;;;;;;;;;;5080684;28;20479;-82
2021/10/21 10:39:56;;;;;;;940.38;789.83;;;;;;;;;;5027567;28;20043;-82
2021/10/21 10:42:43;;;;;;;936.70;775.42;;;;;;;;;;5085851;28;20024;-82
2021/10/21 10:45:13;;;;;;;938.95;777.63;;;;;;;;;;5068102;28;20016;-83
2021/10/21 10:47:43;;;;;;;928.95;744.22;;;;;;;;;;5069166;28;20362;-81
2021/10/21 10:50:14;;;;;;;937.70;764.30;;;;;;;;;;5069925;28;20140;-80
2021/10/21 10:53:00;;;;;;;923.83;714.05;;;;;;;;;;5069658;28;20237;-83
2021/10/21 10:55:26;;;;;;;929.42;734.28;;;;;;;;;;5071844;28;20376;-82
2021/10/21 10:57:54;;;;;;;933.97;751.13;;;;;;;;;;5064780;28;20027;-80
2021/10/21 11:00:35;;;;;;;929.80;740.78;;;;;;;;;;5070031;28;20827;-82
2021/10/21 11:03:03;;;;;;;942.75;771.13;;;;;;;;;;5084360;28;20008;-82
2021/10/21 11:05:50;;;;;;;929.08;737.60;;;;;;;;;;5072728;28;20419;-82
2021/10/21 11:08:18;;;;;;;929.95;740.17;;;;;;;;;;5053058;28;20032;-82
2021/10/21 11:10:45;;;;;;;935.33;751.85;;;;;;;;;;5057519;28;20476;-80
2021/10/21 11:13:19;;;;;;;940.38;732.85;;;;;;;;;;5082726;28;20400;-82
2021/10/21 11:15:46;;;;;;;931.25;744.22;;;;;;;;;;5069848;28;20147;-80
2021/10/21 11:18:21;;;;;;;931.22;744.47;;;;;;;;;;5087196;28;20085;-81
2021/10/21 11:20:47;;;;;;;929.55;744.97;;;;;;;;;;5069665;28;20511;-80
2021/10/21 11:23:39;;;;;;;929.35;747.72;;;;;;;;;;5085417;28;20391;-82
2021/10/21 11:26:06;;;;;;;936.25;754.95;;;;;;;;;;5065961;28;20129;-83
2021/10/21 11:28:33;;;;;;;933.42;752.40;;;;;;;;;;5069102;28;20104;-83
2021/10/21 11:31:00;;;;;;;930.75;746.78;;;;;;;;;;5058499;28;20427;-78
2021/10/21 11:33:26;;;;;;;929.28;745.75;;;;;;;;;;5065450;28;20017;-83
2021/10/21 11:35:53;;;;;;;931.15;744.88;;;;;;;;;;5074787;28;20060;-81
2021/10/21 11:38:20;;;;;;;919.15;701.92;;;;;;;;;;5089782;28;20401;-81
2021/10/21 11:40:48;;;;;;;933.15;750.20;;;;;;;;;;5066221;28;20330;-82
2021/10/21 11:43:23;;;;;;;929.38;736.92;;;;;;;;;;5062333;28;20060;-81
2021/10/21 11:45:56;;;;;;;921.80;710.35;;;;;;;;;;5063712;28;20051;-83
2021/10/21 11:48:28;;;;;;;937.13;753.90;;;;;;;;;;5065665;28;20028;-83
2021/10/21 11:50:54;;;;;;;928.65;732.38;;;;;;;;;;5092054;28;20360;-83
2021/10/21 11:53:21;;;;;;;940.00;764.95;;;;;;;;;;5065631;28;20059;-83
2021/10/21 11:55:48;;;;;;;939.38;764.83;;;;;;;;;;5063079;28;20235;-83
2021/10/21 11:58:24;;;;;;;932.08;751.88;;;;;;;;;;5049223;28;20058;-82
2021/10/21 12:00:52;;;;;;;943.15;776.67;;;;;;;;;;5052043;28;20025;-83
2021/10/21 12:03:18;;;;;;;941.85;775.97;;;;;;;;;;5048605;28;20029;-82
2021/10/21 12:05:46;;;;;;;939.35;777.25;;;;;;;;;;5059503;28;20021;-83
2021/10/21 12:08:13;;;;;;;937.70;779.35;;;;;;;;;;5068225;28;20332;-82
2021/10/21 12:10:45;;;;;;;937.80;780.85;;;;;;;;;;5071982;28;20020;-84
2021/10/21 12:13:34;;;;;;;944.53;790.95;;;;;;;;;;5082072;28;20067;-82
2021/10/21 12:16:02;;;;;;;942.55;784.38;;;;;;;;;;5065479;28;20109;-82
2021/10/21 12:18:31;;;;;;;940.40;787.15;;;;;;;;;;5061362;28;20033;-83
2021/10/21 12:21:03;;;;;;;942.97;795.65;;;;;;;;;;5062286;28;20107;-84
2021/10/21 12:23:31;;;;;;;940.75;786.92;;;;;;;;;;5066845;28;20380;-82
2021/10/21 12:26:01;;;;;;;943.92;794.75;;;;;;;;;;5063435;28;20066;-81
2021/10/21 12:28:27;;;;;;;;;;;;;;;;;;5056250;28;20297;-82
2021/10/21 12:30:53;;;;;;;937.95;764.75;;;;;;;;;;5087780;28;20020;-80
2021/10/21 12:33:19;;;;;;;935.80;768.00;;;;;;;;;;5065768;28;20028;-80
2021/10/21 12:36:00;;;;;;;939.15;784.38;;;;;;;;;;5083338;28;20093;-83
2021/10/21 12:38:26;;;;;;;948.50;804.47;;;;;;;;;;5062775;28;20028;-82
2021/10/21 12:40:59;;;;;;;949.55;810.45;;;;;;;;;;5071792;28;20166;-79
2021/10/21 12:43:27;;;;;;;941.47;792.22;;;;;;;;;;5054068;28;20380;-80
2021/10/21 12:45:53;;;;;;;943.78;793.05;;;;;;;;;;5068568;28;20024;-79
2021/10/21 12:48:26;;;;;;;948.58;805.90;;;;;;;;;;5068406;28;20107;-79
2021/10/21 12:50:54;;;;;;;937.97;782.10;;;;;;;;;;5069041;28;20059;-79
2021/10/21 12:53:20;;;;;;;949.85;811.97;;;;;;;;;;5070732;28;20649;-82
2021/10/21 12:55:46;;;;;;;951.97;821.78;;;;;;;;;;5064984;28;20024;-80
2021/10/21 12:58:28;;;;;;;944.80;804.10;;;;;;;;;;5084471;28;20337;-79
2021/10/21 13:00:58;;;;;;;937.03;775.03;;;;;;;;;;5057794;28;20115;-81
2021/10/21 13:03:24;;;;;;;942.92;792.58;;;;;;;;;;5067498;28;20033;-84
2021/10/21 13:05:54;;;;;;;937.08;769.20;;;;;;;;;;5073492;28;20060;-79
2021/10/21 13:08:23;;;;;;;935.22;765.67;;;;;;;;;;5080080;28;20220;-79
2021/10/21 13:10:58;;;;;;;935.30;765.63;;;;;;;;;;5068921;28;20518;-80
2021/10/21 13:13:54;;;;;;;944.97;793.58;;;;;;;;;;5063969;28;20047;-80
2021/10/21 13:16:20;;;;;;;946.92;792.58;;;;;;;;;;5047109;28;20145;-80
2021/10/21 13:18:55;;;;;;;938.70;782.40;;;;;;;;;;5066366;28;20255;-81
2021/10/21 13:21:21;;;;;;;946.65;804.35;;;;;;;;;;5085155;28;20110;-80
2021/10/21 13:23:47;;;;;;;952.13;821.00;;;;;;;;;;5093372;28;20049;-81
2021/10/21 13:26:13;;;;;;;946.20;808.17;;;;;;;;;;5064167;28;20278;-80
2021/10/21 13:28:39;;;;;;;953.55;825.75;;;;;;;;;;5064531;28;20024;-83
2021/10/21 13:31:05;;;;;;;944.33;807.08;;;;;;;;;;5064349;28;20477;-83
2021/10/21 13:33:31;;;;;;;940.60;795.83;;;;;;;;;;5061801;28;20035;-81
2021/10/21 13:35:58;;;;;;;953.40;820.65;;;;;;;;;;5068550;28;20020;-83
2021/10/21 13:38:24;;;;;;;927.53;760.85;;;;;;;;;;5080996;28;20028;-80
2021/10/21 13:40:50;;;;;;;939.55;785.88;;;;;;;;;;5067070;28;20078;-83
2021/10/21 13:43:16;;;;;;;946.88;806.63;;;;;;;;;;5061885;28;20054;-81
2021/10/21 13:45:43;;;;;;;951.08;818.85;;;;;;;;;;5063218;28;20439;-78
2021/10/21 13:48:10;;;;;;;949.70;818.05;;;;;;;;;;5096140;28;20019;-80
2021/10/21 13:50:36;;;;;;;937.95;793.15;;;;;;;;;;5065987;28;20472;-80
2021/10/21 13:53:04;;;;;;;922.70;746.60;;;;;;;;;;5064399;28;20122;-80
2021/10/21 13:55:30;;;;;;;929.65;767.28;;;;;;;;;;5065773;28;20123;-81
2021/10/21 13:57:56;;;;;;;925.70;755.05;;;;;;;;;;5088889;28;20046;-80
2021/10/21 14:00:23;;;;;;;934.55;773.92;;;;;;;;;;5072331;28;20028;-81